Weather History for Hillsboro, TX

Change the Weather History Date:

Saturday, May 3, 2014

  Actual Average (KACT) Record (KACT)
Temperature  
Mean Temperature 68 °F 71 °F  
Max Temperature 89 °F 82 °F 94 °F (1943)
Min Temperature 46 °F 60 °F 40 °F (2013)
Degree Days  
Heating Degree Days 0 1  
Month to date heating degree days 3  
Since 1 July heating degree days 2139  
Cooling Degree Days 2 6  
Month to date cooling degree days 18  
Year to date cooling degree days 172  
Growing Degree Days 18 (Base 50)    
Moisture  
Dew Point 37 °F    
Average Humidity 34    
Maximum Humidity 75    
Minimum Humidity 13    
Precipitation  
Precipitation 0.00 in 0.14 in 2.63 in (1990)
Month to date precipitation 0.41  
Year to date precipitation 11.00  
Sea Level Pressure  
Sea Level Pressure 29.99 in    
Wind  
Wind Speed 5 mph (ESE)    
Max Wind Speed 12 mph    
Max Gust Speed -    
Visibility 10 miles    
Events      
T = Trace of Precipitation, MM = Missing Value Source: NWS Daily Summary

Daily Weather History Graph

Daily Weather History Graph

Search for Another Location

Airport:

Trip Planner

Search our weather history database for the weather conditions in past years. The results will help you decide how hot, cold, wet, or windy it might be!

Date:

Astronomy

May. 03, 2014 Rise Set
Actual Time 6:40 AM CDT 8:10 PM CDT
Civil Twilight 6:14 AM CDT 8:36 PM CDT
Nautical Twilight 5:43 AM CDT 9:08 PM CDT
Astronomical Twilight 5:10 AM CDT 9:40 PM CDT
Moon 10:14 AM CDT (5/3) No Moon Set
Length of Visible Light 14h 22m
Length of Day
13h 30m
Waxing Crescent, 20% of the Moon is Illuminated
May 3
Waxing Crescent
May 6
First Quarter
May 14
Full
May 21
Last Quarter
May 28
New

Hourly Weather History & Observations

Time (CDT) Temp. Dew Point Humidity Pressure Visibility Wind Dir Wind Speed Gust Speed Precip Events Conditions
12:15 AM 62.2 °F 31.5 °F 31% 29.98 in 10.0 mi ENE 8.1 mph - N/A   Clear
12:35 AM 62.4 °F 31.6 °F 31% 29.98 in 10.0 mi ENE 9.2 mph - N/A   Clear
12:55 AM 61.7 °F 31.8 °F 33% 29.98 in 10.0 mi NE 9.2 mph - N/A   Clear
1:15 AM 60.8 °F 32.9 °F 35% 29.97 in 10.0 mi NE 11.5 mph - N/A   Clear
1:35 AM 60.8 °F 34.9 °F 38% 29.97 in 10.0 mi ENE 10.4 mph - N/A   Clear
1:55 AM 60.6 °F 35.8 °F 40% 29.97 in 10.0 mi ENE 8.1 mph - N/A   Clear
2:15 AM 60.4 °F 35.6 °F 40% 29.96 in 10.0 mi ENE 9.2 mph - N/A   Clear
2:35 AM 59.9 °F 35.4 °F 40% 29.96 in 10.0 mi ENE 6.9 mph - N/A   Clear
2:55 AM 57.9 °F 35.6 °F 43% 29.95 in 10.0 mi Calm Calm - N/A   Clear
3:15 AM 56.5 °F 36.0 °F 46% 29.95 in 10.0 mi Calm Calm - N/A   Clear
3:35 AM 58.6 °F 35.6 °F 42% 29.95 in 10.0 mi Calm Calm - N/A   Clear
3:55 AM 55.9 °F 35.1 °F 45% 29.95 in 10.0 mi North 3.5 mph - N/A   Clear
4:15 AM 52.3 °F 36.5 °F 55% 29.96 in 10.0 mi Calm Calm - N/A   Clear
4:35 AM 49.1 °F 36.3 °F 61% 29.96 in 10.0 mi SSE 3.5 mph - N/A   Clear
4:55 AM 48.9 °F 36.7 °F 63% 29.96 in 10.0 mi Calm Calm - N/A   Clear
5:15 AM 47.8 °F 37.6 °F 68% 29.97 in 10.0 mi Calm Calm - N/A   Clear
5:35 AM 46.2 °F 36.3 °F 68% 29.97 in 10.0 mi Calm Calm - N/A   Clear
5:55 AM 47.5 °F 36.0 °F 64% 29.97 in 10.0 mi Calm Calm - N/A   Clear
6:15 AM 46.4 °F 36.5 °F 68% 29.98 in 10.0 mi Calm Calm - N/A   Clear
6:35 AM 46.2 °F 37.2 °F 71% 29.98 in 10.0 mi Calm Calm - N/A   Clear
6:55 AM 46.2 °F 37.4 °F 71% 29.99 in 10.0 mi Calm Calm - N/A   Clear
7:15 AM 46.4 °F 38.8 °F 75% 30.00 in 10.0 mi Calm Calm - N/A   Clear
7:35 AM 49.6 °F 40.6 °F 71% 30.01 in 10.0 mi Calm Calm - N/A   Clear
7:55 AM 53.4 °F 44.2 °F 71% 30.01 in 10.0 mi Calm Calm - N/A   Clear
8:15 AM 57.9 °F 41.9 °F 55% 30.01 in 10.0 mi Calm Calm - N/A   Clear
8:35 AM 60.8 °F 41.4 °F 49% 30.02 in 10.0 mi Calm Calm - N/A   Clear
8:55 AM 62.1 °F 42.1 °F 48% 30.03 in 10.0 mi SW 3.5 mph - N/A   Clear
9:15 AM 63.5 °F 40.6 °F 43% 30.03 in 10.0 mi Calm Calm - N/A   Clear
9:35 AM 66.4 °F 42.6 °F 42% 30.04 in 10.0 mi WSW 3.5 mph - N/A   Clear
9:55 AM 70.0 °F 42.4 °F 37% 30.04 in 10.0 mi Calm Calm - N/A   Clear
10:15 AM 72.7 °F 40.8 °F 32% 30.04 in 10.0 mi SSW 3.5 mph - N/A   Clear
10:35 AM 75.0 °F 39.6 °F 28% 30.05 in 10.0 mi WSW 3.5 mph - N/A   Clear
11:15 AM 78.8 °F 39.4 °F 24% 30.05 in 10.0 mi WNW 3.5 mph - N/A   Clear
11:35 AM 79.7 °F 35.8 °F 21% 30.05 in 10.0 mi NW 5.8 mph - N/A   Clear
11:55 AM 81.0 °F 35.6 °F 20% 30.05 in 10.0 mi Calm Calm - N/A   Clear
12:15 PM 81.7 °F 35.6 °F 19% 30.05 in 10.0 mi Calm Calm - N/A   Clear
12:35 PM 82.8 °F 32.2 °F 16% 30.04 in 10.0 mi West 4.6 mph - N/A   Clear
12:55 PM 84.0 °F 32.9 °F 16% 30.04 in 10.0 mi Calm Calm - N/A   Clear
1:15 PM 84.6 °F 32.9 °F 16% 30.03 in 10.0 mi WNW 6.9 mph - N/A   Clear
1:35 PM 85.3 °F 33.1 °F 15% 30.03 in 10.0 mi NW 5.8 mph - N/A   Clear
1:55 PM 85.3 °F 32.0 °F 15% 30.02 in 10.0 mi Calm Calm - N/A   Clear
2:15 PM 86.4 °F 32.7 °F 15% 30.01 in 10.0 mi Calm Calm - N/A   Clear
2:35 PM 87.3 °F 32.9 °F 14% 30.01 in 10.0 mi SSW 4.6 mph - N/A   Clear
2:55 PM 87.4 °F 32.2 °F 14% 30.00 in 10.0 mi SSW 3.5 mph - N/A   Clear
3:15 PM 87.3 °F 31.8 °F 14% 30.00 in 10.0 mi SE 5.8 mph - N/A   Clear
3:35 PM 88.3 °F 33.3 °F 14% 29.98 in 10.0 mi SSW 4.6 mph - N/A   Clear
3:55 PM 88.3 °F 32.9 °F 14% 29.98 in 10.0 mi Calm Calm - N/A   Clear
4:15 PM 89.2 °F 33.4 °F 14% 29.98 in 10.0 mi ESE 3.5 mph - N/A   Clear
4:35 PM 89.1 °F 33.1 °F 14% 29.98 in 10.0 mi Calm Calm - N/A   Clear
4:55 PM 89.2 °F 32.5 °F 13% 29.97 in 10.0 mi SSE 4.6 mph - N/A   Clear
5:15 PM 89.1 °F 33.1 °F 14% 29.97 in 10.0 mi SSE 4.6 mph - N/A   Clear
5:35 PM 88.9 °F 33.1 °F 14% 29.97 in 10.0 mi SE 6.9 mph - N/A   Clear
5:55 PM 89.1 °F 33.6 °F 14% 29.97 in 10.0 mi Calm Calm - N/A   Clear
6:15 PM 88.3 °F 32.4 °F 14% 29.97 in 10.0 mi East 4.6 mph - N/A   Clear
6:35 PM 88.2 °F 32.7 °F 14% 29.96 in 10.0 mi East 6.9 mph - N/A   Clear
6:55 PM 87.4 °F 33.1 °F 14% 29.97 in 10.0 mi ESE 6.9 mph - N/A   Clear
7:15 PM 85.5 °F 35.2 °F 17% 29.97 in 10.0 mi ESE 6.9 mph - N/A   Clear
7:35 PM 83.1 °F 38.1 °F 20% 29.97 in 10.0 mi East 5.8 mph - N/A   Clear
7:55 PM 80.4 °F 38.7 °F 22% 29.97 in 10.0 mi ESE 6.9 mph - N/A   Clear
8:15 PM 78.6 °F 39.0 °F 24% 29.98 in 10.0 mi ESE 8.1 mph - N/A   Clear
8:35 PM 76.8 °F 39.2 °F 26% 29.98 in 10.0 mi ESE 8.1 mph - N/A   Clear
8:55 PM 75.4 °F 39.6 °F 27% 29.99 in 10.0 mi East 8.1 mph - N/A   Clear
9:15 PM 74.3 °F 40.1 °F 29% 29.99 in 10.0 mi East 9.2 mph - N/A   Clear
9:35 PM 74.3 °F 40.3 °F 29% 30.00 in 10.0 mi ESE 10.4 mph - N/A   Clear
9:55 PM 74.1 °F 40.8 °F 30% 30.01 in 10.0 mi ESE 10.4 mph - N/A   Clear
10:15 PM 73.8 °F 41.0 °F 31% 30.01 in 10.0 mi ESE 11.5 mph - N/A   Clear
10:35 PM 73.4 °F 40.6 °F 31% 30.01 in 10.0 mi ESE 10.4 mph - N/A   Clear
10:55 PM 72.9 °F 40.1 °F 31% 30.02 in 10.0 mi ESE 10.4 mph - N/A   Clear
11:15 PM 71.4 °F 40.5 °F 33% 30.02 in 10.0 mi ESE 10.4 mph - N/A   Clear
11:35 PM 72.1 °F 39.7 °F 31% 30.02 in 10.0 mi ESE 9.2 mph - N/A   Clear
11:55 PM 71.4 °F 39.2 °F 31% 30.02 in 10.0 mi SE 9.2 mph - N/A   Clear